メインページ
METAR-TAF:

METAR-TAF

空港 :

シアトル / タコマ, ワシントン, アメリカ合衆国

シアトル・タコマ国際空港

緯度: 47-26-41N, 経度: 122-18-49W, 海抜: 130m

現時点の気象観測

当レポートは17分前の11:53(UTC)に作成
東/南東の風 5kt
気温 8°C
湿度 87%
気圧 1008 hPa
視程: 16.1km
高度4000ftの千切れ雲あり
高度5000ftの曇り

METAR: KSEA 241153Z 12005KT 10SM BKN040 OVC050 08/06 A2978 RMK AO2 SLP090 60012 70026 T00830061 10083 20072 56021

時間: 05:10 (12:10 UTC)

予報

当レポートは40分前の11:30(UTC)に作成
予報は24日の 12時(UTC)から 25日の 18時(UTC)まで有効
東/南東の風 9kt
視程: 10km
高度4500ftの千切れ雲あり
高度8000ftの曇り
近辺でにわか雨
24日の 12時(UTC)から 24日の 16時(UTC)まで一時的に
高度3500ftの曇り
弱いにわか雨
24日の 1600時(UTC)から
の風 9kt
視程: 10km
高度4500ftの千切れ雲あり
高度8000ftの曇り
近辺でにわか雨
24日の 2000時(UTC)から
南/南西の風 12kt、最大22ktの突風を伴う
視程: 10km
高度3500ftの雲は散在している
高度5000ftの千切れ雲あり
高度7000ftの曇り
弱いにわか雨
25日の 0300時(UTC)から
南/南西の風 9kt
視程: 10km
高度4000ftの雲は散在している
高度6000ftの千切れ雲あり
高度10000ftの千切れ雲あり
近辺でにわか雨

TAF: KSEA 241130Z 2412/2518 11009KT P6SM VCSH BKN045 OVC080 TEMPO 2412/2416 -SHRA OVC035 FM241600 18009KT P6SM VCSH BKN045 OVC080 FM242000 21012G22KT P6SM -SHRA SCT035 BKN050 OVC070 FM250300 20009KT P6SM VCSH SCT040 BKN060 BKN100

4,000以上の空港の気象観測と天気予報(METAR報とTAF報)

利用可能な観測所は地図上に黄色い丸と赤い丸で示す。

丸の上にカーソルを重ねると観測所名を参照できる。

次にクリックすると気象観測と天気予報を参照できる。

マップの切り替え:黒色「×」印の緑ボタンをクリックして拡大、「-」印の緑ボタンをクリックして縮小、緑色の三角印をクリックして隣りの地図に切り替え


METAR-TAF: